createdAt,value
2022-09-30T00:00:23.300Z,3.5
2022-09-30T00:01:33.102Z,1.8
2022-09-30T00:02:40.797Z,2.4
2022-09-30T00:03:50.437Z,2.2
2022-09-30T00:05:00.128Z,2.9
2022-09-30T00:06:09.843Z,3.1
2022-09-30T00:07:19.582Z,1.8
2022-09-30T00:08:28.246Z,2.1
2022-09-30T00:09:38.008Z,2.4
2022-09-30T00:10:46.673Z,3.3
2022-09-30T00:11:56.369Z,2.3
2022-09-30T00:13:06.106Z,2.4
2022-09-30T00:14:14.787Z,3
2022-09-30T00:15:23.561Z,1.4
2022-09-30T00:16:33.298Z,2.4
2022-09-30T00:17:42.926Z,2.1
2022-09-30T00:18:50.608Z,2.7
2022-09-30T00:19:59.301Z,2.9
2022-09-30T00:21:09.004Z,3.1
2022-09-30T00:22:18.722Z,2.6
2022-09-30T00:23:28.419Z,1.6
2022-09-30T00:24:37.274Z,2.4
2022-09-30T00:25:46.989Z,3.8
2022-09-30T00:26:55.917Z,4.3
2022-09-30T00:28:05.626Z,2
2022-09-30T00:29:15.431Z,2.2
2022-09-30T00:30:23.017Z,2.8
2022-09-30T00:31:32.842Z,2
2022-09-30T00:32:42.445Z,2
2022-09-30T00:33:50.114Z,3
2022-09-30T00:34:59.847Z,3.4
2022-09-30T00:36:08.538Z,3.2
2022-09-30T00:37:18.239Z,4.5
2022-09-30T00:38:27.127Z,2.2
2022-09-30T00:39:34.829Z,1.9
2022-09-30T00:40:44.525Z,2.6
2022-09-30T00:41:53.215Z,4.1
2022-09-30T00:43:00.910Z,3.3
2022-09-30T00:50:09.261Z,2.4
2022-09-30T00:51:18.930Z,2.7
2022-09-30T00:52:27.618Z,1.8
2022-09-30T00:53:35.357Z,2.4
2022-09-30T00:54:45.025Z,2.6
2022-09-30T00:55:53.703Z,2.5
2022-09-30T00:57:01.387Z,2.1
2022-09-30T00:58:11.056Z,2.9
2022-09-30T00:59:18.754Z,2.1
2022-09-30T01:00:27.504Z,3
2022-09-30T01:01:36.208Z,3.3
2022-09-30T01:02:44.855Z,3.1
2022-09-30T01:03:54.517Z,3.1
2022-09-30T01:05:04.185Z,2.5
2022-09-30T01:06:12.938Z,3.1
2022-09-30T01:07:22.553Z,2.6
2022-09-30T01:08:32.235Z,2.9
2022-09-30T01:09:41.953Z,2.2
2022-09-30T01:10:50.654Z,2.4
2022-09-30T01:11:59.367Z,2.9
2022-09-30T01:13:09.045Z,2.4
2022-09-30T01:14:17.723Z,3.2
2022-09-30T01:15:25.393Z,3.4
2022-09-30T01:16:35.141Z,3.2
2022-09-30T01:17:43.791Z,2.3
2022-09-30T01:18:52.466Z,3.1
2022-09-30T01:20:02.132Z,2.3
2022-09-30T01:21:10.817Z,3.3
2022-09-30T01:22:20.513Z,2.8
2022-09-30T01:23:30.170Z,2.6
2022-09-30T01:24:38.838Z,1.8
2022-09-30T01:25:48.536Z,2
2022-09-30T01:26:57.219Z,2.4
2022-09-30T01:28:05.907Z,1.7
2022-09-30T01:29:14.603Z,3.4
2022-09-30T01:30:23.261Z,1.8
2022-09-30T01:31:32.995Z,2.7
2022-09-30T01:32:41.593Z,3
2022-09-30T01:33:50.266Z,2.7
2022-09-30T01:34:59.988Z,1.8
2022-09-30T01:36:08.657Z,2.1
2022-09-30T01:37:16.328Z,2.2
2022-09-30T01:38:26.026Z,2.1
2022-09-30T01:39:33.700Z,2
2022-09-30T01:40:43.443Z,3.3
2022-09-30T01:41:53.113Z,1.8
2022-09-30T01:43:02.789Z,2.7
2022-09-30T01:44:12.458Z,2.2
2022-09-30T01:45:22.137Z,2.3
2022-09-30T01:46:30.853Z,3
2022-09-30T01:47:39.488Z,2
2022-09-30T01:48:48.172Z,2.1
2022-09-30T01:49:57.835Z,1.4
2022-09-30T01:51:07.500Z,2.1
2022-09-30T01:52:16.193Z,2.5
2022-09-30T01:53:25.863Z,2
2022-09-30T01:54:34.573Z,2
2022-09-30T01:55:44.245Z,3
2022-09-30T01:56:53.918Z,2.6
2022-09-30T01:58:02.601Z,1.7
2022-09-30T01:59:11.273Z,2.1
2022-09-30T02:00:18.941Z,2.1
2022-09-30T02:01:27.591Z,1.9
2022-09-30T02:02:36.364Z,2.3
2022-09-30T02:03:43.960Z,2
2022-09-30T02:04:53.635Z,3.8
2022-09-30T02:06:03.326Z,1.6
2022-09-30T02:07:12.009Z,1.7
2022-09-30T02:08:20.675Z,2.4
2022-09-30T02:09:30.444Z,2.4
2022-09-30T02:10:40.094Z,2.4
2022-09-30T02:11:49.740Z,1.4
2022-09-30T02:12:57.438Z,1.2
2022-09-30T02:14:07.111Z,1.4
2022-09-30T02:15:16.831Z,1.6
2022-09-30T02:16:25.568Z,2.6
2022-09-30T02:17:34.158Z,2
2022-09-30T02:18:41.841Z,1.8
2022-09-30T02:19:51.501Z,1.8
2022-09-30T02:21:00.314Z,1.9
2022-09-30T02:22:07.983Z,1.6
2022-09-30T02:23:17.667Z,1.3
2022-09-30T02:24:27.317Z,1.1
2022-09-30T02:25:35.984Z,1.6
2022-09-30T02:26:44.704Z,0.9
2022-09-30T02:27:53.345Z,2
2022-09-30T02:29:03.020Z,1.6
2022-09-30T02:30:11.690Z,2.5
2022-09-30T02:31:20.409Z,1.6
2022-09-30T02:32:30.041Z,1.3
2022-09-30T02:33:38.695Z,1.1
2022-09-30T02:34:47.377Z,1.3
2022-09-30T02:35:56.067Z,1.4
2022-09-30T02:37:05.740Z,2.8
2022-09-30T02:38:15.475Z,1.3
2022-09-30T02:39:25.133Z,1.6
2022-09-30T02:40:33.804Z,1.3
2022-09-30T02:41:43.477Z,1.7
2022-09-30T02:42:52.171Z,1.7
2022-09-30T02:44:00.853Z,1.5
2022-09-30T02:45:09.593Z,2
2022-09-30T02:46:17.243Z,2.3
2022-09-30T02:47:26.913Z,2.1
2022-09-30T02:48:35.614Z,2.3
2022-09-30T02:49:43.296Z,1.2
2022-09-30T02:50:52.977Z,2.2
2022-09-30T02:52:02.633Z,1.6
2022-09-30T02:53:11.310Z,2.2
2022-09-30T02:54:21.015Z,0.9
2022-09-30T02:55:28.691Z,2.5
2022-09-30T02:56:38.373Z,2
2022-09-30T02:57:48.066Z,1.8
2022-09-30T02:58:57.778Z,1.2
2022-09-30T03:00:11.914Z,1.8
2022-09-30T03:01:17.271Z,3.3
2022-09-30T03:02:26.840Z,1.4
2022-09-30T03:03:35.512Z,1.6
2022-09-30T03:04:44.192Z,2.4
2022-09-30T03:05:53.875Z,3.7
2022-09-30T03:07:02.581Z,1.9
2022-09-30T03:08:10.308Z,1.8
2022-09-30T03:09:20.226Z,2.4
2022-09-30T03:10:29.733Z,1.3
2022-09-30T03:11:38.412Z,1.8
2022-09-30T03:12:47.118Z,1.6
2022-09-30T03:13:55.794Z,1.9
2022-09-30T03:15:05.513Z,2.1
2022-09-30T03:16:15.216Z,2.1
2022-09-30T03:17:22.846Z,2.3
2022-09-30T03:18:32.556Z,2
2022-09-30T03:19:41.227Z,1.2
2022-09-30T03:20:50.908Z,1.5
2022-09-30T03:21:59.567Z,1.8
2022-09-30T03:23:07.222Z,1.3
2022-09-30T03:24:17.155Z,1.6
2022-09-30T03:25:26.828Z,2.5
2022-09-30T03:26:34.483Z,1.6
2022-09-30T03:27:44.175Z,1.2
2022-09-30T03:28:52.856Z,3.2
2022-09-30T03:30:02.564Z,3.7
2022-09-30T03:31:11.341Z,3.2
2022-09-30T03:32:18.907Z,1.6
2022-09-30T03:33:28.575Z,2.8
2022-09-30T03:34:37.237Z,1.9
2022-09-30T03:35:45.903Z,1.7
2022-09-30T03:36:55.576Z,2.4
2022-09-30T03:38:05.232Z,1.9
2022-09-30T03:39:13.943Z,1.4
2022-09-30T03:40:22.573Z,1.3
2022-09-30T03:41:30.282Z,1.9
2022-09-30T03:42:40.012Z,2
2022-09-30T03:43:49.673Z,1.9
2022-09-30T03:44:58.348Z,2.4
2022-09-30T03:46:08.039Z,1.4
2022-09-30T03:47:17.778Z,2.5
2022-09-30T03:48:26.438Z,1.2
2022-09-30T03:49:36.107Z,2.2
2022-09-30T03:50:43.789Z,2.7
2022-09-30T03:51:53.445Z,2.9
2022-09-30T03:53:02.130Z,1.7
2022-09-30T03:54:11.815Z,2.1
2022-09-30T03:55:20.506Z,1.5
2022-09-30T03:56:28.168Z,2.3
2022-09-30T03:57:37.843Z,2.1
2022-09-30T03:58:47.542Z,2.5
2022-09-30T03:59:55.197Z,2
2022-09-30T04:01:03.921Z,1.7
2022-09-30T04:02:12.586Z,1.5
2022-09-30T04:03:21.236Z,3.2
2022-09-30T04:04:30.885Z,6.9
2022-09-30T04:05:38.590Z,6.5
2022-09-30T04:06:48.266Z,6.8
2022-09-30T04:07:56.953Z,7.8
2022-09-30T04:09:06.648Z,4.8
2022-09-30T04:10:16.342Z,4.2
2022-09-30T04:11:24.012Z,1.6
2022-09-30T04:12:33.681Z,2.8
2022-09-30T04:13:42.347Z,1.8
2022-09-30T04:14:50.023Z,4.1
2022-09-30T04:15:59.790Z,2.2
2022-09-30T04:17:08.455Z,3.4
2022-09-30T04:18:18.147Z,3.8
2022-09-30T04:19:26.898Z,4.1
2022-09-30T04:20:34.541Z,4.9
2022-09-30T04:21:44.240Z,3.6
2022-09-30T04:22:52.899Z,3.3
2022-09-30T04:24:01.589Z,4.4
2022-09-30T04:25:11.289Z,2.7
2022-09-30T04:26:19.977Z,2.9
2022-09-30T04:27:28.732Z,4.9
2022-09-30T04:28:37.412Z,4.9
2022-09-30T04:29:47.124Z,5.5
2022-09-30T04:30:56.806Z,5.3
2022-09-30T04:32:05.481Z,3.8
2022-09-30T04:33:14.197Z,4.6
2022-09-30T04:34:23.886Z,6.1
2022-09-30T04:35:32.592Z,4.2
2022-09-30T04:36:41.246Z,4.1
2022-09-30T04:37:49.943Z,2.9
2022-09-30T04:38:57.625Z,3.6
2022-09-30T04:40:07.306Z,5.2
2022-09-30T04:41:15.975Z,3.2
2022-09-30T04:42:23.637Z,3.3
2022-09-30T04:43:33.334Z,4.7
2022-09-30T04:44:42.038Z,5.6
2022-09-30T04:45:50.796Z,4.2
2022-09-30T04:46:58.429Z,4.9
2022-09-30T04:48:07.114Z,4.6
2022-09-30T04:49:16.825Z,2.4
2022-09-30T04:50:25.517Z,2.7
2022-09-30T04:51:34.217Z,1.6
2022-09-30T04:52:43.896Z,3.6
2022-09-30T04:53:53.583Z,1.9
2022-09-30T04:55:03.273Z,1.4
2022-09-30T04:56:12.005Z,2.2
2022-09-30T04:57:20.691Z,1.9
2022-09-30T04:58:33.457Z,1.5
2022-09-30T04:59:40.064Z,1.5
2022-09-30T05:00:47.873Z,3.5
2022-09-30T05:01:57.549Z,1.6
2022-09-30T05:03:07.230Z,3.1
2022-09-30T05:04:16.934Z,3
2022-09-30T05:05:25.610Z,2
2022-09-30T05:06:34.295Z,1.6
2022-09-30T05:07:44.034Z,4.4
2022-09-30T05:08:53.688Z,1.5
2022-09-30T05:10:01.347Z,1.7
2022-09-30T05:11:10.014Z,2.6
2022-09-30T05:12:19.698Z,2.4
2022-09-30T05:13:28.408Z,2.1
2022-09-30T05:14:38.087Z,2.6
2022-09-30T05:15:47.031Z,2.1
2022-09-30T05:16:56.626Z,2.6
2022-09-30T05:18:06.310Z,3.6
2022-09-30T05:19:14.108Z,4.5
2022-09-30T05:20:23.745Z,2
2022-09-30T05:21:32.498Z,2.9
2022-09-30T05:22:42.226Z,5.2
2022-09-30T05:23:52.032Z,4.3
2022-09-30T05:25:01.657Z,1.5
2022-09-30T05:26:12.667Z,1.7
2022-09-30T05:27:21.031Z,4.5
2022-09-30T05:28:30.724Z,3.5
2022-09-30T05:29:40.408Z,4
2022-09-30T05:30:50.286Z,2.1
2022-09-30T05:31:59.066Z,1.4
2022-09-30T05:33:08.681Z,3.4
2022-09-30T05:34:16.358Z,2.1
2022-09-30T05:35:26.072Z,1.7
2022-09-30T05:36:34.781Z,2.3
2022-09-30T05:37:44.491Z,2.1
2022-09-30T05:38:54.196Z,2.1
2022-09-30T05:40:02.850Z,3.1
2022-09-30T05:41:11.722Z,4
2022-09-30T05:42:20.225Z,4.1
2022-09-30T05:43:27.926Z,2.4
2022-09-30T05:44:37.626Z,2.7
2022-09-30T05:45:46.329Z,2.5
2022-09-30T05:46:54.096Z,2.2
2022-09-30T05:48:04.774Z,1.9
2022-09-30T05:49:13.524Z,3
2022-09-30T05:50:22.416Z,3.7
2022-09-30T05:51:31.114Z,4
2022-09-30T05:52:40.818Z,2.7
2022-09-30T05:53:50.584Z,2.7
2022-09-30T05:54:59.335Z,2.5
2022-09-30T05:56:08.944Z,3.5
2022-09-30T05:57:17.623Z,2
2022-09-30T05:58:25.338Z,1.7
2022-09-30T05:59:35.035Z,2.8
2022-09-30T06:00:43.712Z,3.7
2022-09-30T06:01:53.439Z,1.9
2022-09-30T06:03:02.100Z,2.6
2022-09-30T06:04:10.721Z,3.4
2022-09-30T06:05:20.444Z,1.9
2022-09-30T06:06:30.139Z,3.1
2022-09-30T06:07:39.803Z,3.2
2022-09-30T06:08:49.487Z,3.8
2022-09-30T06:09:58.175Z,2.6
2022-09-30T06:11:06.910Z,3
2022-09-30T06:12:16.561Z,1.7
2022-09-30T06:13:26.254Z,1.8
2022-09-30T06:14:35.959Z,2.4
2022-09-30T06:15:44.640Z,2
2022-09-30T06:16:53.393Z,4.6
2022-09-30T06:18:03.032Z,3
2022-09-30T06:19:12.742Z,3
2022-09-30T06:20:21.500Z,2.3
2022-09-30T06:21:31.192Z,2
2022-09-30T06:22:39.874Z,2.5
2022-09-30T06:23:49.576Z,2.8
2022-09-30T06:24:58.255Z,2.3
2022-09-30T06:26:05.910Z,2.8
2022-09-30T06:27:15.610Z,4.4
2022-09-30T06:28:25.276Z,2.3
2022-09-30T06:29:33.931Z,1.4
2022-09-30T06:30:42.599Z,2.9
2022-09-30T06:31:50.507Z,3.6
2022-09-30T06:33:00.151Z,1.8
2022-09-30T06:34:09.977Z,3
2022-09-30T06:35:17.641Z,2.4
2022-09-30T06:36:27.308Z,2
2022-09-30T06:37:35.974Z,2.2
2022-09-30T06:38:45.646Z,3.5
2022-09-30T06:39:55.358Z,1.6
2022-09-30T06:41:04.047Z,3
2022-09-30T06:42:13.716Z,4.3
2022-09-30T06:43:22.433Z,3.2
2022-09-30T06:44:31.184Z,3.8
2022-09-30T06:45:41.776Z,1.8
2022-09-30T06:46:54.048Z,1.7
2022-09-30T06:48:01.454Z,2.3
2022-09-30T06:49:13.630Z,2.7
2022-09-30T06:50:25.177Z,3.5
2022-09-30T06:51:31.105Z,3.7
2022-09-30T06:52:40.787Z,2.3
2022-09-30T06:53:53.277Z,2.2
2022-09-30T06:54:59.123Z,2.8
2022-09-30T06:56:08.805Z,3.5
2022-09-30T06:57:17.516Z,6.4
2022-09-30T06:58:26.284Z,3
2022-09-30T06:59:34.838Z,3.2
2022-09-30T07:00:44.556Z,4.4
2022-09-30T07:01:53.269Z,2.1
2022-09-30T07:03:02.968Z,2.1
2022-09-30T07:04:12.691Z,3.1
2022-09-30T07:05:21.401Z,6.3
2022-09-30T07:06:30.089Z,2.8
2022-09-30T07:07:39.754Z,2.6
2022-09-30T07:08:47.473Z,2.2
2022-09-30T07:09:59.639Z,3.3
2022-09-30T07:11:06.793Z,4.5
2022-09-30T07:12:14.488Z,1.7
2022-09-30T07:13:24.170Z,2.3
2022-09-30T07:14:34.906Z,2.5
2022-09-30T07:15:44.604Z,2.4
2022-09-30T07:16:54.338Z,2.3
2022-09-30T07:18:02.000Z,1.6
2022-09-30T07:19:11.694Z,1.8
2022-09-30T07:20:20.386Z,2.8
2022-09-30T07:21:28.084Z,2.2
2022-09-30T07:22:37.775Z,1.5
2022-09-30T07:23:46.455Z,1.5
2022-09-30T07:24:55.162Z,1.9
2022-09-30T07:26:04.845Z,1.6
2022-09-30T07:27:12.529Z,1.6
2022-09-30T07:28:22.237Z,1.8
2022-09-30T07:29:40.352Z,2.3
2022-09-30T07:30:41.628Z,2.1
2022-09-30T07:31:51.381Z,1.4
2022-09-30T07:33:01.026Z,2.7
2022-09-30T07:34:09.731Z,1.9
2022-09-30T07:35:19.502Z,2.3
2022-09-30T07:36:32.080Z,2.2
2022-09-30T07:37:39.115Z,2.2
2022-09-30T07:38:47.796Z,1.3
2022-09-30T07:39:56.466Z,1.9
2022-09-30T07:41:06.208Z,1.4
2022-09-30T07:42:17.874Z,2.8
2022-09-30T07:43:25.639Z,1.6
2022-09-30T07:44:34.367Z,1.2
2022-09-30T07:45:42.177Z,0.9
2022-09-30T07:46:51.863Z,1.1
2022-09-30T07:48:01.544Z,1.5
2022-09-30T07:49:11.307Z,0.7
2022-09-30T07:50:20.026Z,1.4
2022-09-30T07:51:27.719Z,1.6
2022-09-30T07:52:37.476Z,1.5
2022-09-30T07:53:47.206Z,1.4
2022-09-30T07:54:55.965Z,1.8
2022-09-30T07:56:05.661Z,0.8
2022-09-30T07:57:15.364Z,2.8
2022-09-30T07:58:25.086Z,1.3
2022-09-30T07:59:34.762Z,1.2
2022-09-30T08:00:44.618Z,0.6
2022-09-30T08:01:53.309Z,1.2
2022-09-30T08:03:02.014Z,1.7
2022-09-30T08:04:10.693Z,2
2022-09-30T08:05:19.344Z,0.8
2022-09-30T08:06:28.052Z,0.8
2022-09-30T08:07:37.778Z,0.7
2022-09-30T08:08:46.478Z,0.7
2022-09-30T08:09:54.202Z,1.2
2022-09-30T08:11:03.858Z,0.3
2022-09-30T08:12:13.543Z,0.7
2022-09-30T08:13:22.221Z,0.3
2022-09-30T08:14:31.941Z,0.6
2022-09-30T08:15:39.628Z,0.4
2022-09-30T08:16:49.398Z,0.4
2022-09-30T08:17:59.027Z,0.7
2022-09-30T08:19:06.781Z,0.4
2022-09-30T08:20:20.113Z,0.8
2022-09-30T08:21:25.058Z,0.7
2022-09-30T08:22:33.769Z,0.6
2022-09-30T08:23:42.504Z,0.6
2022-09-30T08:24:50.179Z,0.9
2022-09-30T08:25:59.937Z,1
2022-09-30T08:27:08.682Z,0.4
2022-09-30T08:28:16.318Z,1.3
2022-09-30T08:30:36.757Z,0.3
2022-09-30T08:31:45.510Z,0.5
2022-09-30T08:32:54.127Z,0.7
2022-09-30T08:34:03.819Z,0.8
2022-09-30T08:35:13.582Z,0.9
2022-09-30T08:36:23.279Z,0.5
2022-09-30T08:37:30.965Z,0.4
2022-09-30T08:38:40.677Z,0.4
2022-09-30T08:39:50.394Z,0.7
2022-09-30T08:41:00.347Z,0.4
2022-09-30T08:42:19.375Z,1.4
2022-09-30T08:43:17.673Z,0.8
2022-09-30T08:44:27.436Z,1.2
2022-09-30T08:45:36.152Z,0.6
2022-09-30T08:46:43.876Z,0.7
2022-09-30T08:47:53.572Z,0.7
2022-09-30T08:49:03.515Z,1.9
2022-09-30T08:50:12.996Z,0.9
2022-09-30T08:51:21.744Z,0.6
2022-09-30T08:52:44.993Z,0.6
2022-09-30T08:53:42.109Z,0.4
2022-09-30T08:54:50.822Z,0.3
2022-09-30T08:55:58.516Z,0.4
2022-09-30T08:57:08.237Z,0.9
2022-09-30T08:58:16.965Z,0.8
2022-09-30T08:59:26.695Z,0.7
2022-09-30T09:00:36.403Z,0.5
2022-09-30T09:01:45.108Z,0.4
2022-09-30T09:02:54.812Z,1.6
2022-09-30T09:04:03.517Z,0.5
2022-09-30T09:05:11.201Z,0.3
2022-09-30T09:06:20.891Z,0.2
2022-09-30T09:07:29.623Z,0.4
2022-09-30T09:08:38.301Z,0.3
2022-09-30T09:09:46.997Z,0.7
2022-09-30T09:10:55.686Z,0.7
2022-09-30T09:12:05.361Z,0.5
2022-09-30T09:13:15.061Z,0.5
2022-09-30T09:14:22.729Z,0.9
2022-09-30T09:15:32.461Z,1
2022-09-30T09:16:42.249Z,0.7
2022-09-30T09:18:11.233Z,0.5
2022-09-30T09:19:02.548Z,2.1
2022-09-30T09:20:11.225Z,0.7
2022-09-30T09:21:20.958Z,0.7
2022-09-30T09:22:30.669Z,0.4
2022-09-30T09:23:39.395Z,0.5
2022-09-30T09:24:49.079Z,0.6
2022-09-30T09:25:57.786Z,0.6
2022-09-30T09:27:07.497Z,0.3
2022-09-30T09:28:16.285Z,0.7
2022-09-30T09:29:25.859Z,0.8
2022-09-30T09:30:34.526Z,0.8
2022-09-30T09:31:43.230Z,0.8
2022-09-30T09:32:50.896Z,0.5
2022-09-30T09:34:00.572Z,0.6
2022-09-30T09:35:10.293Z,0.5
2022-09-30T09:36:19.969Z,0.6
2022-09-30T09:37:29.650Z,1
2022-09-30T09:38:38.358Z,0.3
2022-09-30T09:39:48.052Z,0.5
2022-09-30T09:40:57.843Z,0.3
2022-09-30T09:42:06.356Z,0.6
2022-09-30T09:43:16.030Z,0.5
2022-09-30T09:44:25.840Z,0.9
2022-09-30T09:45:35.673Z,0.7
2022-09-30T09:46:44.200Z,0.6
2022-09-30T09:47:53.873Z,0.9
2022-09-30T09:49:03.723Z,1.5
2022-09-30T09:50:12.411Z,1.1
2022-09-30T09:51:22.074Z,1.1
2022-09-30T09:52:31.754Z,1
2022-09-30T09:53:39.438Z,1.2
2022-09-30T09:54:49.133Z,1.4
2022-09-30T09:55:57.853Z,1
2022-09-30T09:57:06.524Z,1
2022-09-30T09:58:15.219Z,1.5
2022-09-30T09:59:24.259Z,1.6
2022-09-30T10:00:33.565Z,1
2022-09-30T10:01:43.316Z,1.2
2022-09-30T10:02:51.982Z,1.2
2022-09-30T10:04:01.653Z,0.8
2022-09-30T10:05:09.331Z,1.2
2022-09-30T10:06:18.004Z,1.2
2022-09-30T10:07:26.703Z,1.6
2022-09-30T10:08:34.375Z,1.8
2022-09-30T10:09:44.059Z,2.1
2022-09-30T10:10:53.760Z,1.9
2022-09-30T10:12:02.452Z,1.1
2022-09-30T10:13:12.140Z,1.6
2022-09-30T10:14:20.834Z,2.2
2022-09-30T10:15:29.490Z,1.2
2022-09-30T10:16:39.195Z,1.2
2022-09-30T10:17:46.855Z,1
2022-09-30T10:18:56.550Z,1.6
2022-09-30T10:20:05.235Z,1.8
2022-09-30T10:21:13.894Z,0.6
2022-09-30T10:22:23.567Z,0.5
2022-09-30T10:23:32.267Z,0.5
2022-09-30T10:24:40.975Z,0.6
2022-09-30T10:25:49.642Z,1.3
2022-09-30T10:26:58.315Z,0.7
2022-09-30T10:28:08.120Z,0.7
2022-09-30T10:29:17.650Z,0.8
2022-09-30T10:30:25.321Z,0.6
2022-09-30T10:31:35.156Z,0.5
2022-09-30T10:32:44.670Z,0.7
2022-09-30T10:33:54.338Z,0.4
2022-09-30T10:35:04.001Z,0.6
2022-09-30T10:36:11.691Z,0.4
2022-09-30T10:37:21.368Z,0.6
2022-09-30T10:38:31.073Z,0.4
2022-09-30T10:39:39.732Z,0.9
2022-09-30T10:40:49.408Z,0.5
2022-09-30T10:41:59.117Z,0.5
2022-09-30T10:43:07.775Z,1
2022-09-30T10:44:16.458Z,0.3
2022-09-30T10:45:25.105Z,0.4
2022-09-30T10:46:34.804Z,0.4
2022-09-30T10:47:43.692Z,1.4
2022-09-30T10:48:51.414Z,0.6
2022-09-30T10:50:01.082Z,0.9
2022-09-30T10:51:09.767Z,0.7
2022-09-30T10:52:18.420Z,0.6
2022-09-30T10:53:27.123Z,0.6
2022-09-30T10:54:34.787Z,0.9
2022-09-30T10:55:44.489Z,0.7
2022-09-30T10:56:53.150Z,0.8
2022-09-30T10:58:00.815Z,0.5
2022-09-30T10:59:10.511Z,0.7
2022-09-30T11:00:19.278Z,0.5
2022-09-30T11:01:29.057Z,0.5
2022-09-30T11:02:37.554Z,0.5
2022-09-30T11:03:47.283Z,0.6
2022-09-30T11:04:56.905Z,0.6
2022-09-30T11:06:06.556Z,0.8
2022-09-30T11:07:14.210Z,0.7
2022-09-30T11:08:23.894Z,0.6
2022-09-30T11:09:33.576Z,1
2022-09-30T11:10:43.315Z,0.4
2022-09-30T11:11:51.971Z,0.5
2022-09-30T11:13:00.650Z,0.5
2022-09-30T11:14:10.328Z,0.8
2022-09-30T11:15:18.995Z,0.7
2022-09-30T11:16:27.050Z,0.8
2022-09-30T11:17:36.341Z,0.7
2022-09-30T11:18:45.013Z,0.5
2022-09-30T11:19:53.681Z,0.8
2022-09-30T11:21:03.356Z,0.6
2022-09-30T11:22:11.097Z,1.2
2022-09-30T11:23:21.747Z,1.2
2022-09-30T11:24:30.437Z,0.5
2022-09-30T11:25:38.091Z,1
2022-09-30T11:26:47.783Z,0.4
2022-09-30T11:27:56.534Z,2.4
2022-09-30T11:29:05.158Z,0.4
2022-09-30T11:30:14.838Z,0.7
2022-09-30T11:31:22.562Z,0.5
2022-09-30T11:32:32.216Z,0.7
2022-09-30T11:33:41.877Z,0.7
2022-09-30T11:34:49.565Z,0.7
2022-09-30T11:35:59.289Z,1.1
2022-09-30T11:37:08.959Z,0.5
2022-09-30T11:38:18.628Z,0.4
2022-09-30T11:39:28.328Z,0.4
2022-09-30T11:40:36.000Z,0.5
2022-09-30T11:41:44.671Z,0.9
2022-09-30T11:42:53.345Z,0.8
2022-09-30T11:44:03.021Z,0.5
2022-09-30T11:45:12.725Z,0.7
2022-09-30T11:46:20.393Z,0.4
2022-09-30T11:47:30.082Z,1
2022-09-30T11:48:39.785Z,0.3
2022-09-30T11:49:49.437Z,0.3
2022-09-30T11:50:58.158Z,0.4
2022-09-30T11:52:06.857Z,0.8
2022-09-30T11:53:16.567Z,0.3
2022-09-30T11:54:26.240Z,0.4
2022-09-30T11:55:33.924Z,1
2022-09-30T11:56:43.644Z,0.3
2022-09-30T11:57:53.318Z,0.7
2022-09-30T11:59:01.988Z,0.7
2022-09-30T12:00:11.720Z,0.3
2022-09-30T12:01:20.361Z,1.1
2022-09-30T12:02:30.129Z,0.4
2022-09-30T12:03:38.787Z,0.3
2022-09-30T12:04:47.448Z,0.3
2022-09-30T12:05:57.092Z,0.4
2022-09-30T12:07:06.767Z,0.5
2022-09-30T12:08:15.446Z,0.8
2022-09-30T12:09:25.103Z,0.5
2022-09-30T12:10:33.789Z,0.9
2022-09-30T12:11:43.462Z,0.6
2022-09-30T12:12:53.211Z,0.6
2022-09-30T12:14:01.828Z,0.4
2022-09-30T12:15:11.527Z,0.8
2022-09-30T12:16:20.261Z,0.4
2022-09-30T12:17:28.856Z,0.5
2022-09-30T12:18:37.531Z,0.4
2022-09-30T12:19:46.236Z,0.4
2022-09-30T12:20:55.986Z,0.4
2022-09-30T12:22:05.635Z,0.6
2022-09-30T12:23:14.359Z,1.6
2022-09-30T12:24:23.014Z,0.6
2022-09-30T12:25:32.698Z,1.1
2022-09-30T12:26:43.370Z,0.7
2022-09-30T12:27:52.118Z,0.8
2022-09-30T12:29:03.606Z,0.7
2022-09-30T12:30:11.413Z,0.5
2022-09-30T12:31:21.170Z,0.4
2022-09-30T12:32:28.759Z,0.4
2022-09-30T12:33:38.443Z,0.3
2022-09-30T12:34:48.139Z,0.4
2022-09-30T12:35:56.889Z,0.4
2022-09-30T12:37:05.600Z,0.5
2022-09-30T12:38:14.323Z,0.5
2022-09-30T12:39:23.013Z,0.3
2022-09-30T12:40:32.686Z,1.2
2022-09-30T12:41:41.369Z,0.3
2022-09-30T12:42:51.078Z,0.4
2022-09-30T12:44:00.749Z,0.3
2022-09-30T12:45:09.810Z,0.3
2022-09-30T12:46:18.632Z,0.3
2022-09-30T12:47:26.272Z,0.4
2022-09-30T12:48:36.091Z,0.4
2022-09-30T12:49:44.752Z,0.6
2022-09-30T12:50:53.433Z,0.6
2022-09-30T12:52:03.109Z,0.5
2022-09-30T12:53:11.818Z,0.6
2022-09-30T12:54:20.531Z,1.6
2022-09-30T12:55:30.225Z,0.8
2022-09-30T12:56:38.906Z,0.3
2022-09-30T12:57:47.568Z,0.8
2022-09-30T12:58:57.242Z,0.4
2022-09-30T13:00:05.024Z,0.4
2022-09-30T13:01:14.756Z,0.8
2022-09-30T13:02:23.385Z,0.4
2022-09-30T13:03:33.052Z,0.4
2022-09-30T13:04:41.743Z,1.1
2022-09-30T13:05:50.470Z,0.9
2022-09-30T13:07:00.158Z,1.4
2022-09-30T13:08:08.867Z,0.7
2022-09-30T13:09:16.553Z,0.8
2022-09-30T13:10:26.222Z,0.5
2022-09-30T13:11:34.912Z,3
2022-09-30T13:12:43.609Z,2.1
2022-09-30T13:13:53.301Z,2
2022-09-30T13:15:00.985Z,1.5
2022-09-30T13:16:10.717Z,1.6
2022-09-30T13:17:19.393Z,0.8
2022-09-30T13:18:27.069Z,1.1
2022-09-30T13:19:36.751Z,1.6
2022-09-30T13:20:45.423Z,0.4
2022-09-30T13:21:54.073Z,0.9
2022-09-30T13:23:02.786Z,1.3
2022-09-30T13:24:11.511Z,2.7
2022-09-30T13:25:21.212Z,2.3
2022-09-30T13:26:31.098Z,2.4
2022-09-30T13:27:38.536Z,3.8
2022-09-30T13:28:48.244Z,4.3
2022-09-30T13:29:57.942Z,1.1
2022-09-30T13:31:07.622Z,1.3
2022-09-30T13:32:16.300Z,1.5
2022-09-30T13:33:24.968Z,0.9
2022-09-30T13:34:34.704Z,0.9
2022-09-30T13:35:43.383Z,3.5
2022-09-30T13:36:52.073Z,2
2022-09-30T13:38:01.759Z,2.1
2022-09-30T13:39:10.524Z,4.2
2022-09-30T13:40:19.258Z,1.8
2022-09-30T13:41:29.961Z,1.5
2022-09-30T13:42:39.609Z,1.5
2022-09-30T13:43:49.281Z,0.9
2022-09-30T13:44:58.936Z,1.9
2022-09-30T13:46:08.665Z,0.8
2022-09-30T13:47:18.291Z,0.7
2022-09-30T13:48:26.970Z,0.9
2022-09-30T13:49:36.644Z,0.8
2022-09-30T13:50:45.322Z,0.7
2022-09-30T13:51:54.109Z,0.9
2022-09-30T13:53:03.789Z,0.6
2022-09-30T13:54:11.444Z,0.5
2022-09-30T13:55:21.148Z,0.9
2022-09-30T13:56:30.050Z,0.6
2022-09-30T13:57:37.623Z,0.7
2022-09-30T13:58:47.272Z,1.6
2022-09-30T13:59:55.928Z,1.2
2022-09-30T14:01:04.623Z,0.4
2022-09-30T14:02:14.686Z,1.2
2022-09-30T14:03:22.989Z,0.6
2022-09-30T14:04:32.670Z,1
2022-09-30T14:05:42.329Z,0.6
2022-09-30T14:06:51.007Z,0.7
2022-09-30T14:08:00.677Z,0.7
2022-09-30T14:09:10.381Z,0.6
2022-09-30T14:10:19.038Z,0.7
2022-09-30T14:11:27.707Z,0.6
2022-09-30T14:12:35.379Z,0.4
2022-09-30T14:13:46.068Z,0.5
2022-09-30T14:14:55.729Z,0.9
2022-09-30T14:16:03.443Z,0.8
2022-09-30T14:17:13.060Z,1
2022-09-30T14:18:23.360Z,1
2022-09-30T14:19:32.400Z,0.8
2022-09-30T14:20:41.110Z,0.5
2022-09-30T14:21:49.810Z,0.6
2022-09-30T14:22:59.517Z,0.5
2022-09-30T14:24:08.178Z,0.9
2022-09-30T14:25:16.844Z,1.2
2022-09-30T14:26:26.526Z,1
2022-09-30T14:27:35.201Z,0.7
2022-09-30T14:28:43.852Z,0.5
2022-09-30T14:29:53.573Z,0.6
2022-09-30T14:31:02.207Z,0.3
2022-09-30T14:32:11.899Z,0.4
2022-09-30T14:33:20.573Z,0.4
2022-09-30T14:34:28.236Z,0.7
2022-09-30T14:35:37.947Z,1.1
2022-09-30T14:36:46.624Z,0.8
2022-09-30T14:37:56.304Z,1.2
2022-09-30T14:39:04.965Z,0.6
2022-09-30T14:40:13.653Z,0.4
2022-09-30T14:41:23.334Z,1.1
2022-09-30T14:42:32.044Z,1
2022-09-30T14:43:42.827Z,1.4
2022-09-30T14:44:51.405Z,0.6
2022-09-30T14:46:01.181Z,0.8
2022-09-30T14:47:10.767Z,0.6
2022-09-30T14:48:20.463Z,0.7
2022-09-30T14:49:29.228Z,0.4
2022-09-30T14:50:39.950Z,0.6
2022-09-30T14:51:48.665Z,0.5
2022-09-30T14:52:56.403Z,0.6
2022-09-30T14:54:06.143Z,0.2
2022-09-30T14:55:14.857Z,0.6
2022-09-30T14:56:24.000Z,1.2
2022-09-30T14:57:33.656Z,0.4
2022-09-30T14:58:43.358Z,1.1
2022-09-30T14:59:52.048Z,1.3
2022-09-30T15:01:00.807Z,0.3
2022-09-30T15:02:09.553Z,0.8
2022-09-30T15:03:19.117Z,0.4
2022-09-30T15:04:27.867Z,0.3
2022-09-30T15:05:36.526Z,0.7
2022-09-30T15:06:45.280Z,0.6
2022-09-30T15:07:53.940Z,0.4
2022-09-30T15:09:03.626Z,0.5
2022-09-30T15:10:13.327Z,0.6
2022-09-30T15:11:22.038Z,1
2022-09-30T15:12:31.752Z,0.6
2022-09-30T15:13:40.455Z,0.5
2022-09-30T15:14:48.145Z,0.4
2022-09-30T15:15:56.909Z,0.5
2022-09-30T15:17:06.594Z,0.9
2022-09-30T15:18:15.298Z,0.6
2022-09-30T15:19:24.965Z,1.1
2022-09-30T15:20:33.652Z,0.5
2022-09-30T15:21:43.444Z,0.7
2022-09-30T15:22:52.142Z,0.9
2022-09-30T15:24:01.838Z,1.4
2022-09-30T15:25:11.536Z,1.1
2022-09-30T15:26:20.221Z,0.7
2022-09-30T15:27:28.926Z,0.5
2022-09-30T15:28:37.617Z,0.6
2022-09-30T15:29:45.350Z,1
2022-09-30T15:30:55.044Z,0.5
2022-09-30T15:32:03.842Z,0.9
2022-09-30T15:33:11.404Z,0.5
2022-09-30T15:34:23.180Z,0.7
2022-09-30T15:35:30.837Z,1.8
2022-09-30T15:36:40.540Z,0.4
2022-09-30T15:37:49.272Z,0.8
2022-09-30T15:38:57.991Z,0.5
2022-09-30T15:40:07.673Z,0.5
2022-09-30T15:41:15.365Z,0.3
2022-09-30T15:42:25.058Z,0.7
2022-09-30T15:43:34.733Z,0.4
2022-09-30T15:44:44.401Z,0.6
2022-09-30T15:45:54.141Z,1.4
2022-09-30T15:47:02.774Z,1
2022-09-30T15:48:11.453Z,0.8
2022-09-30T15:49:21.173Z,0.9
2022-09-30T15:50:28.923Z,0.5
2022-09-30T15:51:38.573Z,0.5
2022-09-30T15:52:48.278Z,0.7
2022-09-30T15:53:57.989Z,0.9
2022-09-30T15:55:07.680Z,0.4
2022-09-30T15:56:16.339Z,0.9
2022-09-30T15:57:25.022Z,0.8
2022-09-30T15:58:34.733Z,0.9
2022-09-30T15:59:42.403Z,0.9
2022-09-30T16:00:52.121Z,1.7
2022-09-30T16:02:00.766Z,0.5
2022-09-30T16:03:09.481Z,0.7